Date,TemperatureHighF,TemperatureAvgF,TemperatureLowF,DewpointHighF,DewpointAvgF,DewpointLowF,HumidityHigh,HumidityAvg,HumidityLow,PressureMaxIn,PressureMinIn,WindSpeedMaxMPH,WindSpeedAvgMPH,GustSpeedMaxMPH,PrecipitationSumIn
2013-1-1,16.0,8.4,2.0,11.0,2.9,-1.0,96,80,49,0.00,40.00,8,5,17,0.00
2013-1-2,20.0,15.0,11.0,16.0,13.1,11.0,98,91,77,0.00,40.00,6,4,13,0.00
2013-1-3,23.0,16.2,12.0,19.0,14.0,9.0,100,91,71,0.00,40.00,9,6,19,0.00
2013-1-4,34.0,20.7,11.0,21.0,14.7,9.0,98,79,55,0.00,40.00,10,6,21,0.09
2013-1-5,35.0,22.2,15.0,22.0,17.3,15.0,100,83,52,0.00,40.00,6,3,13,0.03
2013-1-6,25.0,21.4,13.0,25.0,19.2,12.0,100,92,75,0.00,40.00,6,4,15,0.01
2013-1-7,35.0,23.9,12.0,24.0,18.2,9.0,99,79,62,0.00,40.00,12,8,25,0.01
2013-1-8,43.0,28.2,15.0,29.0,22.6,15.0,100,82,39,0.00,40.00,9,4,20,0.08
2013-1-9,34.0,29.4,21.0,29.0,23.3,19.0,90,78,60,0.00,40.00,13,9,33,0.01
2013-1-10,44.0,30.4,16.0,32.0,18.3,10.0,100,67,28,0.00,40.00,7,4,16,0.11
2013-1-11,39.0,35.0,32.0,39.0,35.0,32.0,100,100,100,0.00,40.00,6,4,20,0.15
2013-1-12,42.0,28.3,14.0,42.0,25.3,10.0,100,89,79,0.00,40.00,14,8,33,0.03
2013-1-13,16.0,11.9,5.0,9.0,6.9,2.0,90,80,66,0.00,40.00,9,4,16,0.00
2013-1-14,17.0,7.2,2.0,6.0,3.0,1.0,95,83,61,0.00,40.00,9,6,16,0.00
2013-1-15,26.0,12.9,-2.0,14.0,6.5,-3.0,97,78,46,0.00,40.00,9,5,20,0.00
2013-1-16,25.0,19.8,11.0,24.0,15.7,3.0,99,84,69,0.00,40.00,9,8,22,0.00
2013-1-17,9.0,2.9,-2.0,4.0,-2.1,-5.0,93,80,57,0.00,40.00,8,5,20,0.00
2013-1-18,19.0,9.0,-5.0,19.0,7.5,-6.0,98,93,89,0.00,40.00,6,3,13,0.00
2013-1-19,35.0,20.4,3.0,31.0,18.5,-1.0,100,92,77,0.00,40.00,14,7,32,0.14
2013-1-20,7.0,0.4,-7.0,1.0,-4.1,-9.0,91,81,63,0.00,40.00,10,7,27,0.01
2013-1-21,-7.0,-11.8,-15.0,-9.0,-17.3,-23.0,89,76,59,0.00,40.00,11,8,21,0.00
2013-1-22,-1.0,-10.7,-18.0,-11.0,-16.1,-21.0,88,77,58,0.00,40.00,8,6,14,0.00
2013-1-23,7.0,-5.2,-16.0,1.0,-8.5,-18.0,93,85,71,0.00,40.00,8,5,22,0.00
2013-1-24,8.0,-0.4,-14.0,2.0,-6.3,-16.0,93,77,51,0.00,40.00,4,2,10,0.00
2013-1-25,16.0,9.4,4.0,11.0,7.2,2.0,96,91,78,0.00,40.00,5,4,14,0.00
2013-1-26,25.0,15.2,7.0,14.0,10.0,6.0,97,81,55,0.00,40.00,5,3,11,0.04
2013-1-27,32.0,23.2,15.0,26.0,18.3,11.0,100,82,55,0.00,40.00,6,4,16,0.04
2013-1-28,39.0,28.7,25.0,30.0,27.3,25.0,100,95,71,0.00,40.00,5,2,14,0.13
2013-1-29,34.0,31.0,28.0,34.0,31.0,28.0,100,100,99,0.00,40.00,8,5,19,0.54
2013-1-30,28.0,17.3,9.0,28.0,16.3,8.0,100,96,92,0.00,40.00,10,8,24,0.01
2013-1-31,12.0,5.6,-1.0,8.0,2.2,-3.0,94,86,75,0.00,40.00,9,7,23,0.00
2013-2-1,5.0,-3.2,-11.0,-3.0,-8.3,-13.0,93,79,57,0.00,40.00,9,5,19,0.00
2013-2-2,16.0,0.7,-12.0,2.0,-4.7,-13.0,95,79,53,0.00,40.00,4,2,11,0.00
2013-2-3,10.0,2.7,-3.0,3.0,-1.4,-6.0,94,83,65,0.00,40.00,8,5,18,0.00
2013-2-4,17.0,2.3,-11.0,1.0,-5.0,-12.0,96,74,45,0.00,40.00,6,3,12,0.00
2013-2-5,19.0,10.0,-1.0,15.0,7.1,-6.0,99,88,76,0.00,40.00,7,4,17,0.00
2013-2-6,21.0,12.7,-1.0,18.0,10.2,-2.0,100,90,67,0.00,40.00,5,2,10,0.00
2013-2-7,22.0,18.0,15.0,22.0,17.8,14.0,100,99,95,0.00,40.00,6,4,17,0.00
2013-2-8,30.0,14.3,4.0,14.0,9.6,3.0,100,84,50,0.00,40.00,5,3,15,0.07
2013-2-9,34.0,17.0,6.0,20.0,13.3,5.0,100,87,56,0.00,40.00,6,4,16,0.06
2013-2-10,31.0,25.0,18.0,31.0,25.0,18.0,100,100,100,0.00,40.00,7,4,21,0.01
2013-2-11,32.0,26.3,19.0,32.0,26.1,19.0,100,99,95,0.00,40.00,7,4,17,0.00
2013-2-12,21.0,17.7,14.0,20.0,16.5,14.0,100,95,84,0.00,40.00,6,4,13,0.00
2013-2-13,37.0,24.7,13.0,30.0,22.7,13.0,100,93,70,0.00,40.00,4,3,9,0.18
2013-2-14,28.0,22.2,13.0,28.0,20.1,10.0,100,91,79,0.00,40.00,9,5,18,0.01
2013-2-15,19.0,10.0,1.0,15.0,6.2,0.0,97,85,60,0.00,40.00,7,4,16,0.00
2013-2-16,14.0,4.1,-6.0,5.0,-3.8,-99.9,99,83,59,0.00,40.00,5,3,12,0.00
2013-2-17,28.0,14.0,-10.0,7.0,2.9,-11.0,98,64,39,0.00,40.00,6,4,19,0.03
2013-2-18,37.0,25.9,16.0,29.0,21.4,10.0,100,84,63,0.00,40.00,7,4,15,0.19
2013-2-19,24.0,11.1,4.0,24.0,8.9,1.0,100,90,80,0.00,40.00,11,9,27,0.02
2013-2-20,18.0,9.1,2.0,9.0,5.1,1.0,94,84,66,0.00,40.00,11,8,27,0.00
2013-2-21,29.0,14.6,2.0,18.0,10.1,0.0,100,84,56,0.00,40.00,7,5,16,0.11
2013-2-22,23.0,19.2,16.0,22.0,18.9,16.0,100,98,94,0.00,40.00,6,4,18,0.02
2013-2-23,32.0,21.4,12.0,27.0,20.0,12.0,100,95,75,0.00,40.00,5,3,13,0.06
2013-2-24,40.0,24.7,19.0,22.0,20.3,19.0,100,84,45,0.00,40.00,5,2,10,0.21
2013-2-25,34.0,27.8,23.0,27.0,23.7,21.0,96,85,64,0.00,40.00,4,2,9,0.14
2013-2-26,37.0,26.5,17.0,27.0,22.9,17.0,100,88,57,0.00,40.00,9,4,23,0.23
2013-2-27,29.0,27.0,25.0,26.0,24.6,23.0,97,91,83,0.00,40.00,10,7,25,0.03
2013-2-28,26.0,22.3,17.0,25.0,19.5,14.0,100,89,69,0.00,40.00,10,7,23,0.00
2013-3-1,28.0,17.9,6.0,14.0,10.5,4.0,92,74,41,0.00,40.00,7,5,18,0.01
2013-3-2,29.0,14.8,5.0,10.0,6.8,4.0,98,74,39,0.00,40.00,8,4,16,0.01
2013-3-3,34.0,16.1,-3.0,12.0,3.7,-4.0,100,64,28,0.00,40.00,5,3,13,0.00
2013-3-4,35.0,18.6,3.0,15.0,8.6,1.0,100,69,33,0.00,40.00,5,3,12,0.00
2013-3-5,32.0,21.8,18.0,20.0,15.5,9.0,100,78,45,0.00,40.00,8,5,18,0.00
2013-3-6,28.0,21.4,10.0,22.0,18.1,10.0,100,88,61,0.00,40.00,6,4,13,0.00
2013-3-7,37.0,21.1,10.0,18.0,14.1,10.0,100,77,39,0.00,40.00,4,2,10,0.00
2013-3-8,43.0,26.3,10.0,23.0,16.6,10.0,100,71,38,0.00,40.00,6,4,14,0.00
2013-3-9,34.0,30.0,25.0,32.0,27.7,22.0,100,91,76,0.00,40.00,7,4,18,0.00
2013-3-10,32.0,29.7,26.0,32.0,29.6,26.0,100,99,97,0.00,40.00,7,5,18,0.00
2013-3-11,28.0,23.8,17.0,26.0,23.2,17.0,100,97,90,0.00,40.00,8,6,21,0.00
2013-3-12,24.0,18.0,15.0,20.0,16.4,13.0,98,93,79,0.00,40.00,8,6,18,0.00
2013-3-13,32.0,19.4,11.0,14.0,10.2,3.0,97,70,38,0.00,40.00,9,5,21,0.00
2013-3-14,41.0,23.2,3.0,26.0,12.8,3.0,99,68,35,0.00,40.00,8,4,16,0.00
2013-3-15,33.0,25.7,12.0,27.0,18.5,8.0,95,75,48,0.00,40.00,7,5,16,0.00
2013-3-16,26.0,15.3,6.0,13.0,8.9,5.0,96,77,49,0.00,40.00,7,5,19,0.00
2013-3-17,31.0,13.9,-5.0,8.0,0.9,-7.0,98,63,25,0.00,40.00,7,4,17,0.00
2013-3-18,30.0,21.7,13.0,26.0,19.4,9.0,100,91,69,0.00,40.00,10,5,20,0.00
2013-3-19,23.0,17.0,12.0,14.0,11.0,6.0,96,78,59,0.00,40.00,12,9,26,0.00
2013-3-20,20.0,11.9,2.0,10.0,6.6,0.0,91,79,59,0.00,40.00,9,7,23,0.00
2013-3-21,28.0,17.5,8.0,15.0,12.3,8.0,100,81,55,0.00,40.00,7,5,15,0.00
2013-3-22,33.0,20.0,6.0,21.0,15.8,5.0,100,85,62,0.00,40.00,6,3,15,0.00
2013-3-23,34.0,25.5,19.0,22.0,19.8,17.0,94,80,58,0.00,40.00,5,4,12,0.00
2013-3-24,30.0,24.4,18.0,24.0,20.0,17.0,95,83,74,0.00,40.00,7,4,19,0.00
2013-3-25,35.0,25.1,17.0,24.0,21.2,17.0,100,86,59,0.00,40.00,8,6,18,0.00
2013-3-26,38.0,28.7,21.0,27.0,22.4,18.0,98,79,49,0.00,40.00,7,4,14,0.00
2013-3-27,44.0,31.1,20.0,22.0,19.2,16.0,95,66,34,0.00,40.00,6,3,14,0.00
2013-3-28,51.0,41.8,25.0,19.0,15.9,14.0,71,38,22,0.00,40.00,4,3,10,0.00
2013-3-29,54.0,36.0,17.0,19.0,16.4,13.0,95,53,20,0.00,40.00,5,3,13,0.00
2013-3-30,36.0,33.1,28.0,36.0,28.2,-99.9,100,88,59,0.00,40.00,6,4,14,0.00
2013-3-31,37.0,30.3,19.0,34.0,25.1,11.0,100,83,48,0.00,40.00,11,7,28,0.00
2013-4-1,29.0,20.4,15.0,17.0,10.2,5.0,97,68,37,0.00,40.00,9,6,23,0.00
2013-4-2,35.0,21.8,12.0,16.0,7.6,3.0,90,57,30,0.00,40.00,9,5,20,0.00
2013-4-3,45.0,26.0,7.0,12.0,6.0,0.0,91,50,15,0.00,40.00,8,4,21,0.00
2013-4-4,49.0,37.7,27.0,30.0,21.4,14.0,67,53,33,0.00,40.00,10,7,22,0.00
2013-4-5,44.0,31.5,17.0,19.0,13.6,7.0,94,53,23,0.00,40.00,5,3,11,0.00
2013-4-6,42.0,32.7,27.0,35.0,30.0,17.0,100,91,56,0.00,40.00,8,4,20,0.00
2013-4-7,41.0,33.4,29.0,32.0,30.0,28.0,100,88,67,0.00,40.00,8,4,20,0.00
2013-4-8,36.0,33.4,30.0,36.0,33.3,29.0,100,99,96,0.00,40.00,4,2,11,0.00
2013-4-9,35.0,32.5,26.0,34.0,27.6,15.0,100,84,49,0.00,40.00,8,5,18,0.00
2013-4-10,44.0,34.0,26.0,22.0,16.5,10.0,80,51,31,0.00,40.00,9,6,18,0.00
2013-4-11,34.0,29.0,24.0,23.0,17.2,8.0,94,63,36,0.00,40.00,9,7,28,0.00
2013-4-12,39.0,27.5,24.0,28.0,23.9,22.0,94,86,60,0.00,40.00,7,5,20,0.00
2013-4-13,38.0,27.7,20.0,30.0,21.6,16.0,95,79,56,0.00,40.00,7,4,15,0.00
2013-4-14,44.0,28.8,16.0,29.0,21.9,14.0,96,79,42,0.00,40.00,7,4,20,0.00
2013-4-15,48.0,37.9,31.0,38.0,28.8,24.0,100,72,44,0.00,40.00,10,5,18,0.00
2013-4-16,47.0,36.7,29.0,28.0,25.2,22.0,83,64,37,0.00,40.00,8,5,14,0.00
2013-4-17,43.0,33.5,23.0,29.0,25.3,22.0,95,73,52,0.00,40.00,3,1,7,0.00
2013-4-18,36.0,32.7,31.0,33.0,31.8,31.0,99,96,90,0.00,40.00,3,2,8,0.00
2013-4-19,32.0,26.1,19.0,31.0,23.1,16.0,98,88,76,0.00,40.00,0,0,0,0.00
2013-4-20,37.0,24.2,11.0,18.0,14.4,8.0,89,69,41,0.00,40.00,2,0,10,0.00
2013-4-21,42.0,30.0,17.0,27.0,21.4,13.0,86,71,53,0.00,40.00,5,2,16,0.00
2013-4-22,39.0,35.9,32.0,39.0,35.1,30.0,100,97,91,0.00,40.00,7,4,18,0.00
2013-4-23,36.0,31.6,23.0,32.0,28.4,20.0,99,88,71,0.00,40.00,8,5,17,0.28
2013-4-24,48.0,34.6,19.0,25.0,20.5,17.0,93,61,34,0.00,40.00,8,4,19,0.28
2013-4-25,49.0,38.5,29.0,32.0,24.6,17.0,99,63,30,0.00,40.00,8,4,15,3.64
2013-4-26,64.0,46.4,29.0,37.0,31.5,22.0,96,60,36,0.00,40.00,5,2,15,0.08
2013-4-27,72.0,55.6,40.0,43.0,37.2,34.0,85,55,26,0.00,40.00,2,1,4,0.01
2013-4-28,69.0,56.0,42.0,44.0,40.5,37.0,94,60,34,0.00,40.00,3,1,6,0.00
2013-4-29,71.0,56.3,46.0,53.0,48.7,41.0,100,79,45,0.00,40.00,2,1,5,0.35
2013-4-30,81.0,66.6,50.0,58.0,49.5,39.0,100,59,32,0.00,40.00,4,2,7,0.05
2013-5-1,49.0,42.7,32.0,48.0,39.1,29.0,100,87,67,0.00,40.00,7,4,16,0.28
2013-5-2,32.0,29.6,27.0,31.0,28.2,25.0,97,95,90,0.00,40.00,8,7,21,0.04
2013-5-3,33.0,29.4,26.0,32.0,28.2,25.0,98,94,90,0.00,40.00,8,5,19,0.17
2013-5-4,60.0,43.6,31.0,46.0,38.4,31.0,99,84,59,0.00,40.00,6,3,11,0.23
2013-5-5,74.0,49.1,33.0,43.0,37.8,32.0,99,70,29,0.00,40.00,5,2,8,0.09
2013-5-6,77.0,59.2,37.0,41.0,35.2,27.0,93,50,16,0.00,40.00,5,2,11,0.00
2013-5-7,80.0,61.4,45.0,40.0,36.2,31.0,73,44,17,0.00,40.00,3,2,7,0.00
2013-5-8,78.0,64.6,51.0,41.0,37.4,35.0,57,39,22,0.00,40.00,6,3,16,0.00
2013-5-9,55.0,44.8,33.0,42.0,37.9,30.0,97,78,54,0.00,40.00,8,5,18,0.40
2013-5-10,61.0,45.7,30.0,30.0,25.6,21.0,89,52,23,0.00,40.00,7,5,14,0.33
2013-5-11,44.0,36.6,30.0,39.0,28.5,-99.9,97,77,48,0.00,40.00,13,7,31,0.04
2013-5-12,43.0,34.3,28.0,28.0,20.9,15.0,95,61,33,0.00,40.00,12,8,26,0.06
2013-5-13,57.0,42.7,25.0,28.0,20.8,17.0,76,45,23,0.00,40.00,6,4,15,0.01
2013-5-14,78.0,57.2,38.0,47.0,39.2,30.0,79,53,30,0.00,40.00,7,4,17,0.00
2013-5-15,73.0,62.9,53.0,49.0,39.4,33.0,74,45,24,0.00,40.00,10,6,27,0.00
2013-5-16,71.0,54.1,50.0,39.0,14.9,-99.9,62,38,18,0.00,40.00,6,4,13,0.00
2013-5-17,72.0,54.1,43.0,48.0,34.2,-99.9,79,58,33,0.00,40.00,6,3,12,0.00
2013-5-18,74.0,58.6,49.0,56.0,51.4,46.0,96,78,52,0.00,40.00,5,4,17,0.07
2013-5-19,83.0,69.9,56.0,62.0,58.4,54.0,98,70,44,0.00,40.00,7,4,20,0.02
2013-5-20,80.0,67.1,59.0,59.0,56.6,52.0,95,72,40,0.00,40.00,7,5,19,0.01
2013-5-21,72.0,59.1,48.0,61.0,56.3,48.0,100,91,60,0.00,40.00,6,4,16,1.20
2013-5-22,50.0,46.5,43.0,49.0,45.6,41.0,100,97,89,0.00,40.00,8,5,19,0.79
2013-5-23,51.0,41.4,34.0,38.0,31.2,26.0,94,69,46,0.00,40.00,9,7,24,0.07
2013-5-24,64.0,48.5,30.0,35.0,30.0,27.0,97,56,27,0.00,40.00,6,2,13,0.00
2013-5-25,69.0,54.0,37.0,39.0,35.9,34.0,96,56,29,0.00,40.00,5,3,14,0.00
2013-5-26,70.0,54.7,38.0,36.0,32.4,27.0,88,48,20,0.00,40.00,5,3,14,0.00
2013-5-27,71.0,56.1,40.0,39.0,34.7,29.0,78,47,27,0.00,40.00,7,4,18,0.00
2013-5-28,58.0,53.5,50.0,53.0,46.9,40.0,100,79,58,0.00,40.00,4,2,15,0.00
2013-5-29,78.0,62.1,52.0,63.0,56.4,52.0,100,84,47,0.00,40.00,6,3,18,0.25
2013-5-30,82.0,67.7,59.0,67.0,62.8,59.0,100,87,51,0.00,40.00,7,4,21,0.60
2013-5-31,79.0,66.1,54.0,64.0,57.3,52.0,99,77,43,0.00,40.00,10,5,32,0.30
2013-6-1,66.0,54.7,39.0,58.0,51.8,38.0,100,91,68,0.00,40.00,9,4,18,0.50
2013-6-2,57.0,44.1,36.0,39.0,36.2,33.0,97,77,41,0.00,40.00,10,6,22,0.04
2013-6-3,65.0,50.9,36.0,43.0,35.0,28.0,99,60,31,0.00,40.00,7,3,15,0.01
2013-6-4,62.0,49.5,38.0,46.0,38.3,32.0,90,68,39,0.00,40.00,4,2,11,0.00
2013-6-5,50.0,46.5,43.0,49.0,45.5,41.0,99,96,93,0.00,40.00,4,3,12,0.33
2013-6-6,57.0,49.9,45.0,47.0,44.0,38.0,99,82,53,0.00,40.00,5,3,14,0.34
2013-6-7,68.0,54.3,43.0,49.0,44.1,39.0,94,70,44,0.00,40.00,4,2,11,0.01
2013-6-8,72.0,58.0,49.0,52.0,48.0,45.0,97,73,39,0.00,40.00,5,2,13,0.07
2013-6-9,66.0,56.9,45.0,54.0,50.3,44.0,98,80,61,0.00,40.00,6,3,16,0.02
2013-6-10,79.0,67.1,54.0,62.0,57.0,52.0,94,72,45,0.00,40.00,5,3,10,0.00
2013-6-11,81.0,66.3,54.0,59.0,54.3,45.0,100,70,36,0.00,40.00,6,3,15,0.00
2013-6-12,82.0,66.4,48.0,59.0,48.5,44.0,94,57,34,0.00,40.00,7,3,17,0.00
2013-6-13,69.0,60.1,52.0,52.0,49.6,45.0,92,70,54,0.00,40.00,7,5,19,0.00
2013-6-14,77.0,62.3,44.0,54.0,45.2,39.0,99,60,26,0.00,40.00,5,2,11,0.00
2013-6-15,64.0,60.2,56.0,63.0,57.8,51.0,100,92,75,0.00,40.00,6,3,12,0.33
2013-6-16,78.0,63.6,53.0,59.0,54.3,47.0,100,77,34,0.00,40.00,8,5,37,0.23
2013-6-17,66.0,54.2,43.0,56.0,45.5,-99.9,100,82,69,0.00,40.00,6,4,12,0.31
2013-6-18,72.0,56.7,37.0,43.0,38.8,33.0,93,56,31,0.00,40.00,5,3,13,0.04
2013-6-19,76.0,61.3,43.0,54.0,47.2,42.0,97,64,38,0.00,40.00,6,3,15,0.00
2013-6-20,74.0,62.5,53.0,62.0,56.5,52.0,97,82,66,0.00,40.00,7,3,15,0.02
2013-6-22,75.0,67.5,61.0,65.0,62.6,60.0,98,85,68,0.00,40.00,4,3,22,0.01
2013-6-23,82.0,72.1,61.0,69.0,64.6,61.0,100,79,59,0.00,40.00,9,5,21,0.03
2013-6-24,84.0,73.5,61.0,68.0,63.7,60.0,100,74,48,0.00,40.00,7,4,15,0.03
2013-6-25,87.0,75.4,63.0,67.0,63.7,58.0,99,71,40,0.00,40.00,4,2,9,0.00
2013-6-26,86.0,70.8,61.0,72.0,65.8,61.0,100,86,56,0.00,40.00,6,3,21,0.17
2013-6-27,80.0,68.6,61.0,68.0,64.3,61.0,100,88,58,0.00,40.00,6,3,18,0.25
2013-6-28,71.0,63.0,59.0,62.0,59.7,58.0,100,90,67,0.00,40.00,5,4,12,0.21
2013-6-29,69.0,60.5,54.0,58.0,54.7,46.0,99,82,60,0.00,40.00,7,5,17,0.10
2013-6-30,79.0,64.2,49.0,49.0,45.8,43.0,85,55,33,0.00,40.00,7,4,15,0.01
2013-7-1,79.0,67.8,53.0,54.0,49.5,43.0,75,54,40,0.00,40.00,7,4,16,0.00
2013-7-2,79.0,62.6,44.0,49.0,44.0,41.0,97,57,28,0.00,40.00,4,2,10,0.00
2013-7-3,80.0,67.3,48.0,57.0,49.4,44.0,90,57,32,0.00,40.00,4,2,12,0.00
2013-7-4,81.0,69.4,57.0,60.0,57.8,55.0,98,70,43,0.00,40.00,8,4,16,0.00
2013-7-5,83.0,71.9,58.0,60.0,56.8,54.0,93,62,39,0.00,40.00,8,5,20,0.00
2013-7-6,87.0,73.5,64.0,64.0,61.1,58.0,87,67,42,0.00,40.00,9,5,19,0.00
2013-7-7,84.0,73.2,65.0,70.0,66.8,61.0,99,82,59,0.00,40.00,6,3,14,1.09
2013-7-8,83.0,70.6,64.0,70.0,66.5,64.0,100,88,64,0.00,40.00,4,3,11,1.40
2013-7-9,77.0,70.1,64.0,70.0,67.3,64.0,100,92,74,0.00,40.00,7,4,19,0.56
2013-7-10,71.0,62.9,56.0,64.0,51.7,-99.9,97,72,48,0.00,40.00,8,5,18,0.38
2013-7-11,82.0,67.1,52.0,57.0,53.4,50.0,98,67,36,0.00,40.00,5,2,11,0.00
2013-7-12,81.0,69.4,55.0,61.0,56.9,53.0,95,67,46,0.00,40.00,8,4,17,0.00
2013-7-13,84.0,72.2,64.0,63.0,58.9,54.0,78,64,47,0.00,40.00,8,4,15,0.00
2013-7-14,85.0,73.2,60.0,64.0,60.6,56.0,91,67,47,0.00,40.00,8,4,15,0.00
2013-7-15,86.0,73.8,62.0,70.0,65.3,62.0,100,78,50,0.00,40.00,5,2,15,0.00
2013-7-16,90.0,83.9,74.0,73.0,69.6,67.0,82,63,52,0.00,40.00,9,6,17,0.00
2013-7-17,88.0,78.6,69.0,70.0,67.7,66.0,96,71,51,0.00,40.00,8,5,17,0.00
2013-7-18,88.0,79.7,68.0,73.0,68.6,67.0,98,71,51,0.00,40.00,12,6,28,0.17
2013-7-19,80.0,74.7,61.0,70.0,63.6,55.0,86,69,50,0.00,40.00,11,7,26,0.17
2013-7-20,72.0,62.1,51.0,56.0,48.3,-99.9,89,64,41,0.00,40.00,5,4,12,0.00
2013-7-21,72.0,58.3,46.0,56.0,50.4,45.0,99,77,54,0.00,40.00,5,2,11,0.00
2013-7-22,81.0,63.2,53.0,68.0,58.8,53.0,99,87,57,0.00,40.00,8,4,20,0.15
2013-7-23,65.0,57.9,51.0,54.0,48.1,45.0,92,72,50,0.00,40.00,9,5,22,0.01
2013-7-24,71.0,56.7,45.0,58.0,51.6,45.0,99,85,53,0.00,40.00,5,1,10,0.04
2013-7-25,77.0,62.0,50.0,62.0,56.5,50.0,100,85,55,0.00,40.00,6,3,16,0.61
2013-7-26,67.0,58.3,46.0,63.0,56.6,45.0,100,94,83,0.00,40.00,10,4,20,0.83
2013-7-27,55.0,48.4,43.0,51.0,45.8,41.0,96,91,79,0.00,40.00,6,4,17,0.12
2013-7-28,52.0,49.0,46.0,51.0,47.8,44.0,99,96,91,0.00,40.00,7,5,21,0.07
2013-7-29,75.0,59.4,46.0,57.0,50.9,45.0,99,77,44,0.00,40.00,6,3,15,0.01
2013-7-30,70.0,61.0,54.0,61.0,57.3,53.0,99,88,66,0.00,40.00,5,2,13,0.03
2013-7-31,74.0,64.2,56.0,63.0,59.3,55.0,99,85,61,0.00,40.00,9,4,24,0.01
2013-8-1,72.0,61.5,52.0,56.0,51.7,49.0,94,73,48,0.00,40.00,8,4,17,0.00
2013-8-2,71.0,61.2,51.0,57.0,52.0,48.0,99,75,47,0.00,40.00,7,3,17,0.17
2013-8-3,71.0,59.3,49.0,53.0,50.4,49.0,99,75,48,0.00,40.00,6,4,18,0.01
2013-8-4,70.0,58.5,47.0,51.0,47.8,44.0,100,72,42,0.00,40.00,5,2,9,0.00
2013-8-5,63.0,56.7,49.0,62.0,55.8,48.0,100,97,94,0.00,40.00,4,2,10,0.59
2013-8-6,77.0,63.0,60.0,64.0,53.3,-99.9,100,81,55,0.00,40.00,7,4,15,0.13
2013-8-7,68.0,60.7,49.0,59.0,54.2,44.0,100,82,43,0.00,40.00,7,4,15,0.23
2013-8-8,73.0,59.4,46.0,58.0,52.8,46.0,99,81,50,0.00,40.00,8,3,14,0.01
2013-8-9,68.0,60.0,52.0,56.0,51.5,47.0,100,77,49,0.00,40.00,8,4,20,0.01
2013-8-10,70.0,60.6,47.0,56.0,52.0,47.0,99,76,50,0.00,40.00,4,2,10,0.00
2013-8-11,76.0,61.2,48.0,57.0,52.7,48.0,100,78,44,0.00,40.00,5,2,10,0.00
2013-8-12,72.0,60.7,44.0,59.0,52.9,43.0,99,78,49,0.00,40.00,7,4,19,0.00
2013-8-13,63.0,52.4,44.0,50.0,43.1,-99.9,99,75,50,0.00,40.00,7,4,18,0.00
2013-8-14,67.0,54.3,40.0,51.0,45.3,40.0,100,75,45,0.00,40.00,5,2,13,0.00
2013-8-15,77.0,55.6,45.0,53.0,37.9,-99.9,98,67,41,0.00,40.00,6,3,14,0.00
2013-8-16,80.0,65.7,50.0,57.0,48.2,-99.9,99,63,37,0.00,40.00,4,2,9,0.00
2013-8-17,80.0,66.9,53.0,60.0,52.9,-99.9,100,67,43,0.00,40.00,7,3,17,0.00
2013-8-18,80.0,66.1,52.0,60.0,55.0,52.0,99,71,43,0.00,40.00,7,3,18,0.00
2013-8-19,80.0,64.7,57.0,65.0,49.9,-99.9,93,76,59,0.00,40.00,10,6,21,0.00
2013-8-20,84.0,73.0,60.0,68.0,64.8,60.0,99,77,56,0.00,40.00,7,4,18,0.00
2013-8-21,85.0,72.3,61.0,71.0,66.6,61.0,99,83,63,0.00,40.00,8,5,25,0.25
2013-8-22,78.0,67.2,52.0,62.0,52.9,49.0,100,65,38,0.00,40.00,5,3,12,0.25
2013-8-23,79.0,63.8,49.0,58.0,52.7,47.0,97,71,42,0.00,40.00,5,2,14,0.00
2013-8-24,81.0,68.8,57.0,63.0,55.9,-99.9,97,68,49,0.00,40.00,8,4,18,0.00
2013-8-25,92.0,79.3,68.0,72.0,69.2,65.0,92,73,50,0.00,40.00,11,7,21,0.10
2013-8-26,87.0,74.7,65.0,74.0,69.9,64.0,99,86,63,0.00,40.00,8,4,18,0.64
2013-8-27,77.0,70.2,67.0,73.0,69.1,67.0,99,96,87,0.00,40.00,8,3,33,1.95
2013-8-28,86.0,78.3,68.0,69.0,64.3,61.0,94,65,44,0.00,40.00,5,2,10,0.01
2013-8-29,83.0,70.5,64.0,70.0,66.3,63.0,99,88,60,0.00,40.00,6,3,17,0.21
2013-8-30,76.0,68.4,60.0,69.0,63.6,59.0,98,86,63,0.00,40.00,7,5,20,0.23
2013-8-31,82.0,67.0,54.0,63.0,58.6,-99.9,100,80,48,0.00,40.00,5,2,9,0.00
2013-9-1,72.0,65.2,56.0,65.0,60.9,54.0,98,87,64,0.00,40.00,9,5,17,0.07
2013-9-2,58.0,52.2,48.0,53.0,48.4,46.0,98,88,71,0.00,40.00,7,5,18,0.05
2013-9-3,73.0,59.2,44.0,54.0,50.1,44.0,100,75,44,0.00,40.00,8,4,17,0.01
2013-9-4,70.0,59.4,45.0,57.0,51.1,43.0,95,76,47,0.00,40.00,5,3,13,0.01
2013-9-5,73.0,57.0,42.0,53.0,46.5,41.0,98,73,41,0.00,40.00,4,2,10,0.00
2013-9-6,80.0,63.9,51.0,68.0,59.2,50.0,97,85,67,0.00,40.00,6,4,15,0.00
2013-9-7,83.0,67.4,52.0,70.0,60.6,-99.9,97,82,62,0.00,40.00,7,4,16,0.00
2013-9-8,70.0,58.2,46.0,57.0,50.6,46.0,99,78,50,0.00,40.00,4,2,14,0.01
2013-9-9,73.0,62.9,55.0,70.0,61.5,53.0,100,95,88,0.00,40.00,4,2,12,0.06
2013-9-10,78.0,69.6,63.0,70.0,65.7,62.0,100,89,62,0.00,40.00,8,5,18,0.01
2013-9-11,77.0,65.5,55.0,62.0,58.6,51.0,100,81,55,0.00,40.00,8,4,20,0.01
2013-9-12,60.0,54.1,47.0,54.0,48.4,43.0,98,82,56,0.00,40.00,8,5,22,0.01
2013-9-13,63.0,49.7,38.0,45.0,41.6,36.0,97,77,47,0.00,40.00,6,3,14,0.00
2013-9-14,68.0,52.1,38.0,52.0,44.2,-99.9,99,79,48,0.00,40.00,9,4,19,0.02
2013-9-15,54.0,49.7,38.0,53.0,47.9,37.0,99,93,83,0.00,40.00,7,3,16,0.22
2013-9-16,64.0,47.8,33.0,45.0,37.8,33.0,99,74,35,0.00,40.00,4,2,9,0.01
2013-9-17,67.0,51.1,35.0,50.0,42.5,35.0,99,76,45,0.00,40.00,6,3,17,0.01
2013-9-18,64.0,55.8,54.0,63.0,54.5,51.0,98,96,89,0.00,40.00,4,3,13,0.02
2013-9-19,78.0,66.7,62.0,68.0,64.8,62.0,100,94,71,0.00,40.00,6,3,17,0.36
2013-9-20,70.0,59.6,47.0,64.0,56.9,46.0,100,91,63,0.00,40.00,9,4,22,0.27
2013-9-21,48.0,44.3,34.0,47.0,39.7,-99.9,97,87,72,0.00,40.00,6,4,18,0.07
2013-9-22,60.0,45.0,36.0,43.0,39.3,36.0,99,83,48,0.00,40.00,4,2,9,0.01
2013-9-23,68.0,49.2,37.0,50.0,43.2,36.0,99,83,52,0.00,40.00,6,3,14,0.00
2013-9-24,72.0,52.6,39.0,53.0,47.3,39.0,99,85,50,0.00,40.00,4,1,9,0.01
2013-9-25,72.0,54.3,42.0,54.0,47.9,42.0,100,83,42,0.00,40.00,4,2,9,0.01
2013-9-26,73.0,56.9,41.0,52.0,49.0,41.0,100,79,42,0.00,40.00,5,3,14,0.01
2013-9-27,77.0,61.6,49.0,54.0,50.0,46.0,97,69,42,0.00,40.00,7,4,21,0.01
2013-9-28,73.0,59.5,50.0,61.0,49.8,-99.9,97,74,56,0.00,40.00,10,6,24,0.31
2013-9-29,68.0,53.2,42.0,49.0,44.3,41.0,99,76,37,0.00,40.00,8,4,17,0.30
2013-9-30,72.0,57.2,46.0,46.0,44.1,41.0,94,66,38,0.00,40.00,10,5,25,0.00
2013-10-1,61.0,58.7,56.0,35.0,34.3,34.0,45,40,37,0.00,40.00,7,6,15,0.00
2013-10-2,72.0,56.8,41.0,42.0,37.1,33.0,88,51,24,0.00,40.00,7,3,13,0.00
2013-10-3,61.0,53.5,46.0,52.0,48.1,43.0,98,83,66,0.00,40.00,5,3,16,0.83
2013-10-4,58.0,52.1,49.0,50.0,49.2,48.0,97,90,75,0.00,40.00,6,5,16,0.11
2013-10-5,53.0,50.4,49.0,52.0,49.9,48.0,100,98,96,0.00,40.00,7,5,18,0.72
2013-10-6,56.0,51.2,46.0,53.0,48.9,45.0,100,93,68,0.00,40.00,6,4,15,0.45
2013-10-7,57.0,47.3,37.0,44.0,39.5,35.0,98,77,45,0.00,40.00,8,5,20,0.08
2013-10-8,71.0,53.7,36.0,45.0,40.4,35.0,98,66,34,0.00,40.00,9,4,22,0.00
2013-10-9,72.0,59.7,48.0,50.0,46.0,43.0,85,62,42,0.00,40.00,10,4,20,0.00
2013-10-10,72.0,58.4,44.0,47.0,44.1,41.0,98,64,34,0.00,40.00,6,3,15,0.00
2013-10-11,73.0,57.4,48.0,53.0,48.6,45.0,93,75,45,0.00,40.00,8,4,21,0.00
2013-10-12,67.0,57.2,46.0,56.0,44.3,-99.9,83,65,40,0.00,40.00,10,6,21,0.00
2013-10-13,56.0,46.3,37.0,43.0,37.2,28.0,93,72,45,0.00,40.00,7,4,18,0.00
2013-10-14,55.0,44.0,32.0,41.0,32.8,28.0,94,68,41,0.00,40.00,4,2,12,0.00
2013-10-15,50.0,47.3,43.0,50.0,45.8,39.0,100,95,83,0.00,40.00,5,3,19,0.69
2013-10-16,49.0,41.5,33.0,49.0,39.8,32.0,100,94,84,0.00,40.00,8,5,19,0.22
2013-10-17,54.0,39.2,28.0,40.0,34.9,28.0,98,86,57,0.00,40.00,5,2,11,0.01
2013-10-18,42.0,38.8,30.0,41.0,37.3,29.0,99,95,85,0.00,40.00,7,3,17,0.19
2013-10-19,49.0,36.8,29.0,36.0,32.4,29.0,98,86,52,0.00,40.00,9,3,23,0.11
2013-10-20,41.0,34.6,32.0,34.0,32.4,31.0,98,92,71,0.00,40.00,3,2,10,0.17
2013-10-21,34.0,30.8,28.0,32.0,27.6,23.0,98,89,73,0.00,40.00,10,7,20,0.14
2013-10-22,38.0,32.3,30.0,32.0,29.5,28.0,98,89,72,0.00,40.00,8,5,18,0.24
2013-10-23,36.0,30.6,29.0,30.0,26.8,24.0,92,85,71,0.00,40.00,7,5,17,0.10
2013-10-24,35.0,31.1,29.0,33.0,28.9,27.0,96,92,88,0.00,40.00,5,4,15,0.21
2013-10-25,42.0,34.5,25.0,35.0,27.9,24.0,96,78,60,0.00,40.00,8,6,21,0.02
2013-10-26,43.0,35.4,33.0,36.0,29.5,-99.9,94,82,70,0.00,40.00,9,6,21,0.12
2013-10-27,49.0,36.9,31.0,31.0,29.6,28.0,92,76,45,0.00,40.00,9,5,18,0.01
2013-10-28,37.0,29.5,22.0,28.0,17.7,-99.9,89,66,43,0.00,40.00,7,4,18,0.00
2013-10-29,35.0,28.1,19.0,31.0,23.7,16.0,97,84,53,0.00,40.00,3,2,9,0.02
2013-10-30,47.0,39.0,32.0,47.0,38.5,31.0,100,98,97,0.00,40.00,4,2,12,0.08
2013-10-31,52.0,48.4,43.0,52.0,48.4,43.0,100,100,99,0.00,40.00,7,2,15,0.25
2013-11-1,42.0,39.3,36.0,42.0,37.8,35.0,99,95,87,0.00,40.00,6,4,16,0.10
2013-11-2,41.0,34.7,31.0,34.0,30.7,-99.9,98,89,72,0.00,40.00,4,2,9,0.02
2013-11-3,42.0,34.9,27.0,34.0,30.2,26.0,97,84,61,0.00,40.00,7,4,18,0.00
2013-11-4,46.0,41.9,39.0,41.0,36.9,34.0,98,83,68,0.00,40.00,9,6,26,0.07
2013-11-5,47.0,38.3,30.0,38.0,31.5,29.0,98,78,50,0.00,40.00,6,4,15,0.10
2013-11-6,34.0,31.0,27.0,32.0,28.9,23.0,98,91,84,0.00,40.00,7,5,17,0.11
2013-11-7,30.0,27.7,26.0,26.0,24.0,22.0,89,86,79,0.00,40.00,7,6,15,0.01
2013-11-8,38.0,28.5,18.0,31.0,24.4,16.0,97,85,64,0.00,40.00,6,4,15,0.11
2013-11-9,35.0,33.1,32.0,35.0,30.2,-99.9,99,92,84,0.00,40.00,12,8,28,0.32
2013-11-10,39.0,33.1,31.0,31.0,27.0,24.0,97,79,58,0.00,40.00,11,6,23,0.13
2013-11-11,31.0,22.1,18.0,30.0,15.8,10.0,96,77,55,0.00,40.00,11,8,25,0.01
2013-11-12,28.0,20.3,15.0,14.0,7.2,1.0,83,59,32,0.00,40.00,7,5,16,0.00
2013-11-13,46.0,31.2,16.0,28.0,18.7,5.0,73,60,47,0.00,40.00,10,8,25,0.30
2013-11-14,38.0,33.9,30.0,30.0,27.5,25.0,89,78,69,0.00,40.00,5,4,13,0.05
2013-11-15,50.0,36.1,29.0,36.0,31.9,28.0,98,86,58,0.00,40.00,8,3,15,0.00
2013-11-16,50.0,39.5,36.0,50.0,35.9,-99.9,100,90,81,0.00,40.00,6,4,20,0.64
2013-11-17,50.0,41.4,33.0,50.0,39.7,28.0,99,94,80,0.00,40.00,12,6,31,0.48
2013-11-18,32.0,26.6,24.0,27.0,19.2,16.0,90,74,66,0.00,40.00,13,9,34,0.04
2013-11-19,37.0,28.4,16.0,21.0,16.8,14.0,91,63,44,0.00,40.00,7,4,17,0.00
2013-11-20,36.0,32.5,30.0,30.0,25.0,21.0,97,75,57,0.00,40.00,7,5,21,0.00
2013-11-21,33.0,30.2,24.0,32.0,29.1,21.0,99,96,89,0.00,40.00,8,4,21,0.09
2013-11-22,32.0,22.5,15.0,20.0,14.9,10.0,91,73,51,0.00,40.00,9,6,21,0.05
2013-11-23,13.0,8.6,6.0,9.0,0.9,-99.9,85,73,57,0.00,40.00,10,7,25,0.02
2013-11-24,20.0,10.7,0.0,8.0,1.1,-5.0,83,66,50,0.00,40.00,11,5,22,0.00
2013-11-25,31.0,26.7,20.0,24.0,19.2,9.0,82,74,61,0.00,40.00,10,8,26,0.00
2013-11-26,24.0,14.6,9.0,21.0,7.7,1.0,88,74,57,0.00,40.00,9,6,20,0.00
2013-11-27,25.0,16.4,11.0,13.0,8.4,5.0,87,72,43,0.00,40.00,5,3,13,0.00
2013-11-28,23.0,16.0,9.0,15.0,11.5,6.0,91,82,68,0.00,40.00,5,2,10,0.00
2013-11-29,23.0,17.0,6.0,19.0,12.8,3.0,90,83,75,0.00,40.00,6,3,16,0.00
2013-11-30,34.0,26.7,22.0,24.0,18.5,-99.9,84,74,63,0.00,40.00,5,3,15,0.06
2013-12-1,31.0,27.7,26.0,26.0,22.8,19.0,95,82,70,0.00,40.00,3,1,6,0.01
2013-12-2,32.0,28.4,25.0,25.0,22.2,20.0,89,78,68,0.00,40.00,5,3,14,0.02
2013-12-3,28.0,25.0,22.0,26.0,22.8,19.0,95,90,87,0.00,40.00,7,5,16,0.01
2013-12-4,32.0,26.8,22.0,32.0,25.5,19.0,99,95,89,0.00,40.00,9,5,17,0.01
2013-12-5,32.0,11.8,1.0,32.0,6.5,-5.0,99,79,69,0.00,40.00,14,10,31,0.01
2013-12-6,8.0,-0.4,-8.0,-3.0,-7.6,-14.0,77,72,60,0.00,40.00,8,7,20,0.00
2013-12-7,6.0,-5.3,-14.0,-6.0,-14.2,-99.9,75,68,57,0.00,40.00,8,5,16,0.00
2013-12-8,10.0,-2.1,-15.0,2.0,-8.4,-22.0,82,74,66,0.00,40.00,3,2,7,0.00
2013-12-9,10.0,1.2,-12.0,3.0,-4.9,-18.0,83,75,64,0.00,40.00,12,6,24,0.00
2013-12-10,9.0,-1.9,-13.0,-1.0,-9.5,-20.0,75,70,60,0.00,40.00,9,6,19,0.00
2013-12-11,2.0,-6.1,-12.0,-11.0,-14.5,-19.0,75,67,52,0.00,40.00,8,6,17,0.00
2013-12-12,11.0,0.6,-12.0,2.0,-7.1,-19.0,78,70,55,0.00,40.00,8,6,17,0.00
2013-12-13,10.0,3.4,-1.0,2.0,-4.2,-7.0,80,70,52,0.00,40.00,6,4,14,0.00
2013-12-14,16.0,8.1,1.0,8.0,1.0,-99.9,86,76,65,0.00,40.00,4,2,12,0.00
2013-12-15,11.0,1.7,-13.0,7.0,-6.0,-19.0,86,70,52,0.00,40.00,8,6,21,0.00
2013-12-16,12.0,-0.0,-16.0,4.0,-6.4,-23.0,85,74,59,0.00,40.00,7,4,16,0.00
2013-12-17,23.0,14.6,7.0,18.0,10.8,3.0,89,85,78,0.00,40.00,7,5,16,0.00
2013-12-18,26.0,11.2,0.0,9.0,3.4,-4.0,84,71,47,0.00,40.00,6,3,16,0.00
2013-12-19,19.0,14.6,10.0,17.0,9.5,4.0,90,79,67,0.00,40.00,10,5,20,0.00
2013-12-20,19.0,13.6,5.0,14.0,9.5,1.0,90,84,75,0.00,40.00,6,3,13,0.00
2013-12-21,25.0,17.8,14.0,18.0,13.2,-99.9,91,85,75,0.00,40.00,3,1,7,0.00
2013-12-22,23.0,18.9,15.0,18.0,14.5,12.0,88,83,76,0.00,40.00,6,4,17,0.00
2013-12-23,17.0,9.2,-1.0,10.0,4.1,-5.0,87,80,63,0.00,40.00,5,3,13,0.00
2013-12-24,20.0,7.1,-3.0,6.0,-0.3,-8.0,82,72,53,0.00,40.00,6,3,14,0.00
2013-12-25,20.0,10.6,6.0,9.0,5.2,1.0,86,79,61,0.00,40.00,7,5,16,0.00
2013-12-26,18.0,6.9,2.0,5.0,1.4,-2.0,85,78,55,0.00,40.00,5,3,10,0.00
2013-12-27,29.0,20.1,9.0,26.0,17.2,5.0,91,89,84,0.00,40.00,9,5,19,0.00
2013-12-28,36.0,29.3,22.0,31.0,25.8,-99.9,97,90,80,0.00,40.00,10,4,19,0.00
2013-12-29,18.0,2.8,-13.0,16.0,-3.7,-20.0,90,74,58,0.00,40.00,10,7,24,0.00
2013-12-30,-1.0,-10.8,-22.0,-13.0,-20.3,-30.0,71,62,45,0.00,40.00,5,3,10,0.00
2013-12-31,0.0,-11.2,-19.0,-12.0,-19.8,-26.0,73,65,50,0.00,40.00,8,4,17,0.00
2014-1-1,4.0,-7.4,-19.0,-9.0,-15.5,-26.0,76,67,52,0.00,40.00,4,2,8,0.00
2014-1-2,8.0,-5.5,-14.0,-8.0,-13.4,-21.0,79,69,46,0.00,40.00,6,2,14,0.00